createdAt,value
2018-07-01T00:01:39.097Z,101036.94
2018-07-01T00:04:07.483Z,101039.00
2018-07-01T00:06:35.835Z,101037.66
2018-07-01T00:09:06.250Z,101032.78
2018-07-01T00:11:34.701Z,101046.64
2018-07-01T00:14:03.028Z,101054.09
2018-07-01T00:16:31.395Z,101051.91
2018-07-01T00:18:59.724Z,101049.09
2018-07-01T00:21:28.094Z,101051.06
2018-07-01T00:23:56.477Z,101059.18
2018-07-01T00:26:24.822Z,101062.46
2018-07-01T00:28:53.195Z,101066.18
2018-07-01T00:31:21.497Z,101065.67
2018-07-01T00:33:49.826Z,101062.97
2018-07-01T00:36:18.163Z,101065.03
2018-07-01T00:38:46.515Z,101061.70
2018-07-01T00:41:14.891Z,101063.05
2018-07-01T00:43:43.411Z,101056.09
2018-07-01T00:46:11.775Z,101062.51
2018-07-01T00:48:40.099Z,101065.91
2018-07-01T00:51:08.582Z,101068.34
2018-07-01T00:53:36.963Z,101062.97
2018-07-01T00:56:05.395Z,101065.44
2018-07-01T00:58:33.731Z,101060.56
2018-07-01T01:01:02.095Z,101061.08
2018-07-01T01:03:36.944Z,101058.77
2018-07-01T01:06:05.594Z,101059.48
2018-07-01T01:08:33.940Z,101055.77
2018-07-01T01:11:02.318Z,101061.21
2018-07-01T01:13:30.688Z,101073.61
2018-07-01T01:15:59.088Z,101057.85
2018-07-01T01:18:27.451Z,101062.59
2018-07-01T01:20:55.740Z,101065.47
2018-07-01T01:23:24.091Z,101063.81
2018-07-01T01:25:52.457Z,101069.19
2018-07-01T01:28:20.812Z,101061.12
2018-07-01T01:30:49.251Z,101057.47
2018-07-01T01:33:17.644Z,101055.19
2018-07-01T01:35:47.372Z,101055.06
2018-07-01T01:38:15.711Z,101055.06
2018-07-01T01:41:46.897Z,101061.27
2018-07-01T01:44:19.043Z,101059.35
2018-07-01T01:46:55.644Z,101060.56
2018-07-01T01:49:28.645Z,101062.09
2018-07-01T01:52:06.455Z,101062.48
2018-07-01T01:55:12.680Z,101063.38
2018-07-01T01:58:00.088Z,101070.67
2018-07-01T02:00:32.383Z,101068.36
2018-07-01T02:03:38.403Z,101069.38
2018-07-01T02:06:10.641Z,101073.28
2018-07-01T02:08:42.920Z,101075.68
2018-07-01T02:11:11.316Z,101074.20
2018-07-01T02:13:41.911Z,101073.11
2018-07-01T02:16:14.492Z,101066.76
2018-07-01T02:18:42.817Z,101079.38
2018-07-01T02:21:11.210Z,101081.13
2018-07-01T02:23:43.211Z,101083.35
2018-07-01T02:26:11.531Z,101084.62
2018-07-01T02:28:39.929Z,101086.47
2018-07-01T02:31:08.315Z,101090.50
2018-07-01T02:33:36.636Z,101092.44
2018-07-01T02:36:05.147Z,101095.93
2018-07-01T02:38:33.489Z,101102.88
2018-07-01T02:41:01.795Z,101109.64
2018-07-01T02:43:30.148Z,101106.81
2018-07-01T02:45:58.482Z,101113.39
2018-07-01T02:48:26.801Z,101108.39
2018-07-01T02:50:55.149Z,101115.30
2018-07-01T02:53:23.456Z,101112.50
2018-07-01T02:55:51.807Z,101117.55
2018-07-01T02:58:20.144Z,101109.16
2018-07-01T03:00:48.493Z,101117.92
2018-07-01T03:03:16.840Z,101115.42
2018-07-01T03:05:45.136Z,101112.27
2018-07-01T03:08:13.463Z,101114.30
2018-07-01T03:10:41.754Z,101119.21
2018-07-01T03:13:10.101Z,101116.75
2018-07-01T03:15:38.465Z,101115.95
2018-07-01T03:18:06.756Z,101120.06
2018-07-01T03:20:35.094Z,101125.94
2018-07-01T03:23:03.499Z,101127.97
2018-07-01T03:25:31.828Z,101129.69
2018-07-01T03:28:00.140Z,101128.34
2018-07-01T03:30:28.499Z,101129.86
2018-07-01T03:32:56.806Z,101124.49
2018-07-01T03:35:25.112Z,101124.67
2018-07-01T03:37:53.484Z,101122.03
2018-07-01T03:40:21.908Z,101120.87
2018-07-01T03:42:50.295Z,101115.50
2018-07-01T03:45:18.636Z,101122.42
2018-07-01T03:47:46.959Z,101120.42
2018-07-01T03:50:15.355Z,101122.09
2018-07-01T03:52:43.627Z,101116.58
2018-07-01T03:55:13.588Z,101121.48
2018-07-01T03:57:41.976Z,101118.83
2018-07-01T04:00:10.227Z,101116.33
2018-07-01T04:02:38.571Z,101123.22
2018-07-01T04:05:06.947Z,101121.59
2018-07-01T04:07:35.351Z,101128.48
2018-07-01T04:10:03.741Z,101123.62
2018-07-01T04:12:32.051Z,101120.24
2018-07-01T04:15:00.384Z,101121.95
2018-07-01T04:17:28.667Z,101127.34
2018-07-01T04:19:57.060Z,101120.12
2018-07-01T04:22:25.467Z,101116.79
2018-07-01T04:24:53.819Z,101122.30
2018-07-01T04:27:22.113Z,101123.32
2018-07-01T04:29:50.447Z,101118.97
2018-07-01T04:32:18.767Z,101120.67
2018-07-01T04:34:47.039Z,101115.30
2018-07-01T04:37:15.382Z,101116.97
2018-07-01T04:39:43.715Z,101116.47
2018-07-01T04:42:12.055Z,101119.30
2018-07-01T04:44:40.367Z,101119.80
2018-07-01T04:47:08.682Z,101116.61
2018-07-01T04:49:37.028Z,101122.48
2018-07-01T04:52:05.383Z,101123.00
2018-07-01T04:54:33.700Z,101124.02
2018-07-01T04:57:02.878Z,101124.19
2018-07-01T04:59:31.207Z,101121.51
2018-07-01T05:01:59.539Z,101122.34
2018-07-01T05:04:27.856Z,101126.84
2018-07-01T05:06:56.183Z,101119.95
2018-07-01T05:09:24.497Z,101125.80
2018-07-01T05:11:52.805Z,101133.84
2018-07-01T05:14:21.135Z,101127.64
2018-07-01T05:16:49.436Z,101129.67
2018-07-01T05:19:17.773Z,101123.11
2018-07-01T05:21:46.098Z,101124.45
2018-07-01T05:24:14.456Z,101123.62
2018-07-01T05:26:42.783Z,101121.98
2018-07-01T05:29:11.100Z,101130.27
2018-07-01T05:31:39.395Z,101136.61
2018-07-01T05:34:07.746Z,101132.59
2018-07-01T05:36:36.120Z,101131.90
2018-07-01T05:39:06.874Z,101128.70
2018-07-01T05:41:35.227Z,101134.55
2018-07-01T05:44:03.623Z,101136.07
2018-07-01T05:46:31.931Z,101137.23
2018-07-01T05:49:00.263Z,101142.09
2018-07-01T05:51:28.640Z,101140.89
2018-07-01T05:53:56.989Z,101140.72
2018-07-01T05:56:25.360Z,101144.74
2018-07-01T05:58:53.731Z,101148.23
2018-07-01T06:01:22.037Z,101156.61
2018-07-01T06:03:50.359Z,101152.55
2018-07-01T06:06:18.789Z,101153.20
2018-07-01T06:08:47.207Z,101156.22
2018-07-01T06:11:15.451Z,101149.31
2018-07-01T06:13:43.782Z,101151.45
2018-07-01T06:16:12.103Z,101162.89
2018-07-01T06:18:40.483Z,101151.50
2018-07-01T06:21:09.571Z,101159.52
2018-07-01T06:23:37.930Z,101168.70
2018-07-01T06:26:06.287Z,101162.31
2018-07-01T06:28:34.618Z,101164.82
2018-07-01T06:31:02.983Z,101165.80
2018-07-01T06:33:31.303Z,101172.37
2018-07-01T06:35:59.663Z,101170.52
2018-07-01T06:38:28.015Z,101174.19
2018-07-01T06:40:56.399Z,101183.37
2018-07-01T06:43:24.683Z,101175.45
2018-07-01T06:45:53.016Z,101182.13
2018-07-01T06:48:21.375Z,101185.75
2018-07-01T06:50:49.727Z,101184.37
2018-07-01T06:53:18.088Z,101180.27
2018-07-01T06:55:46.379Z,101189.48
2018-07-01T06:58:14.747Z,101203.07
2018-07-01T07:00:43.047Z,101193.02
2018-07-01T07:03:11.423Z,101188.84
2018-07-01T07:05:39.768Z,101198.10
2018-07-01T07:08:08.132Z,101198.50
2018-07-01T07:10:36.455Z,101190.16
2018-07-01T07:13:04.754Z,101197.56
2018-07-01T07:15:33.127Z,101199.56
2018-07-01T07:18:02.167Z,101195.20
2018-07-01T07:20:30.514Z,101192.00
2018-07-01T07:22:58.855Z,101194.19
2018-07-01T07:25:27.188Z,101196.83
2018-07-01T07:27:55.522Z,101193.45
2018-07-01T07:30:23.948Z,101184.66
2018-07-01T07:32:52.340Z,101191.66
2018-07-01T07:35:20.716Z,101187.96
2018-07-01T07:37:49.679Z,101191.30
2018-07-01T07:40:18.096Z,101191.91
2018-07-01T07:42:46.488Z,101195.54
2018-07-01T07:45:14.879Z,101187.61
2018-07-01T07:47:43.224Z,101187.10
2018-07-01T07:50:12.111Z,101192.11
2018-07-01T07:52:40.611Z,101195.27
2018-07-01T07:55:09.088Z,101195.70
2018-07-01T07:57:37.483Z,101192.13
2018-07-01T08:00:05.863Z,101191.25
2018-07-01T08:02:34.239Z,101192.41
2018-07-01T08:05:02.937Z,101194.53
2018-07-01T08:07:31.311Z,101197.55
2018-07-01T08:09:59.737Z,101193.43
2018-07-01T08:12:28.052Z,101199.45
2018-07-01T08:14:56.375Z,101203.31
2018-07-01T08:17:24.760Z,101209.15
2018-07-01T08:19:53.239Z,101206.78
2018-07-01T08:22:21.647Z,101203.07
2018-07-01T08:24:49.987Z,101207.75
2018-07-01T08:27:18.367Z,101207.05
2018-07-01T08:29:46.666Z,101205.02
2018-07-01T08:32:15.343Z,101202.97
2018-07-01T08:34:43.668Z,101196.52
2018-07-01T08:37:12.026Z,101203.19
2018-07-01T08:39:40.327Z,101200.59
2018-07-01T08:42:20.431Z,101208.48
2018-07-01T08:44:49.331Z,101212.01
2018-07-01T08:47:17.775Z,101212.84
2018-07-01T08:49:46.083Z,101202.08
2018-07-01T08:52:14.915Z,101203.42
2018-07-01T08:54:43.595Z,101207.78
2018-07-01T08:57:12.502Z,101221.05
2018-07-01T08:59:40.834Z,101214.14
2018-07-01T09:02:09.251Z,101220.55
2018-07-01T09:04:38.176Z,101218.36
2018-07-01T09:07:06.699Z,101217.02
2018-07-01T09:09:35.056Z,101212.28
2018-07-01T09:12:03.391Z,101213.89
2018-07-01T09:14:31.759Z,101209.25
2018-07-01T09:17:00.142Z,101205.48
2018-07-01T09:19:41.042Z,101206.45
2018-07-01T09:22:09.687Z,101206.07
2018-07-01T09:24:38.591Z,101205.66
2018-07-01T09:27:07.011Z,101194.51
2018-07-01T09:29:39.537Z,101199.51
2018-07-01T09:32:08.466Z,101192.08
2018-07-01T09:34:36.985Z,101194.70
2018-07-01T09:37:05.333Z,101183.71
2018-07-01T09:39:33.699Z,101195.45
2018-07-01T09:42:02.022Z,101196.92
2018-07-01T09:44:30.375Z,101199.42
2018-07-01T09:46:58.827Z,101196.67
2018-07-01T09:49:27.165Z,101204.91
2018-07-01T09:51:55.583Z,101202.63
2018-07-01T09:54:23.899Z,101187.75
2018-07-01T09:56:53.628Z,101186.85
2018-07-01T09:59:21.992Z,101185.12
2018-07-01T10:01:50.391Z,101180.98
2018-07-01T10:04:19.554Z,101182.45
2018-07-01T10:06:48.011Z,101179.17
2018-07-01T10:09:16.353Z,101173.39
2018-07-01T10:11:44.786Z,101172.78
2018-07-01T10:14:13.196Z,101173.22
2018-07-01T10:16:41.565Z,101169.74
2018-07-01T10:19:10.013Z,101175.03
2018-07-01T10:21:38.536Z,101172.26
2018-07-01T10:24:06.960Z,101177.06
2018-07-01T10:26:35.449Z,101171.98
2018-07-01T10:29:13.407Z,101171.27
2018-07-01T10:31:42.916Z,101170.33
2018-07-01T10:34:12.303Z,101161.45
2018-07-01T10:36:40.796Z,101162.25
2018-07-01T10:39:11.642Z,101157.84
2018-07-01T10:41:40.027Z,101141.58
2018-07-01T10:44:08.403Z,101152.71
2018-07-01T10:46:36.863Z,101152.42
2018-07-01T10:49:05.410Z,101150.70
2018-07-01T10:51:33.839Z,101141.08
2018-07-01T10:54:02.171Z,101143.75
2018-07-01T10:56:30.511Z,101143.41
2018-07-01T10:58:58.856Z,101149.81
2018-07-01T11:01:27.279Z,101147.28
2018-07-01T11:03:55.693Z,101128.37
2018-07-01T11:06:24.400Z,101136.22
2018-07-01T11:08:52.790Z,101131.65
2018-07-01T11:11:21.182Z,101139.43
2018-07-01T11:13:49.511Z,101135.64
2018-07-01T11:16:17.931Z,101125.27
2018-07-01T11:18:46.307Z,101115.49
2018-07-01T11:21:15.325Z,101114.44
2018-07-01T11:23:43.741Z,101111.91
2018-07-01T11:26:12.151Z,101120.11
2018-07-01T11:28:40.480Z,101110.19
2018-07-01T11:31:08.892Z,101106.16
2018-07-01T11:33:37.227Z,101099.72
2018-07-01T11:36:05.578Z,101100.31
2018-07-01T11:38:33.934Z,101094.48
2018-07-01T11:41:02.328Z,101092.09
2018-07-01T11:43:30.735Z,101091.13
2018-07-01T11:45:59.151Z,101084.85
2018-07-01T11:48:27.629Z,101095.34
2018-07-01T11:50:55.991Z,101089.77
2018-07-01T11:53:24.318Z,101092.83
2018-07-01T11:55:52.671Z,101076.67
2018-07-01T11:58:21.009Z,101090.76
2018-07-01T12:00:49.323Z,101084.73
2018-07-01T12:03:17.739Z,101087.66
2018-07-01T12:05:46.055Z,101090.30
2018-07-01T12:08:14.431Z,101086.66
2018-07-01T12:10:42.791Z,101079.26
2018-07-01T12:13:11.185Z,101075.87
2018-07-01T12:15:39.755Z,101074.64
2018-07-01T12:18:08.160Z,101076.38
2018-07-01T12:20:36.494Z,101075.07
2018-07-01T12:23:04.927Z,101075.57
2018-07-01T12:25:33.308Z,101073.53
2018-07-01T12:28:01.707Z,101065.14
2018-07-01T12:30:30.140Z,101064.85
2018-07-01T12:32:58.497Z,101067.41
2018-07-01T12:35:26.799Z,101059.89
2018-07-01T12:37:55.139Z,101053.07
2018-07-01T12:40:23.859Z,101047.30
2018-07-01T12:42:52.257Z,101057.28
2018-07-01T12:45:20.612Z,101057.45
2018-07-01T12:47:48.917Z,101049.73
2018-07-01T12:50:17.294Z,101051.76
2018-07-01T12:52:45.645Z,101040.34
2018-07-01T12:55:14.128Z,101041.48
2018-07-01T12:57:42.503Z,101038.57
2018-07-01T13:00:10.867Z,101041.69
2018-07-01T13:02:39.176Z,101040.06
2018-07-01T13:05:07.531Z,101035.70
2018-07-01T13:07:35.952Z,101045.59
2018-07-01T13:10:04.401Z,101034.16
2018-07-01T13:12:32.799Z,101033.09
2018-07-01T13:15:01.202Z,101033.42
2018-07-01T13:17:29.526Z,101025.50
2018-07-01T13:19:57.983Z,101018.92
2018-07-01T13:22:26.512Z,101023.61
2018-07-01T13:24:55.352Z,101022.56
2018-07-01T13:27:23.703Z,101019.56
2018-07-01T13:29:52.666Z,101017.17
2018-07-01T13:32:21.070Z,101017.17
2018-07-01T13:34:49.401Z,101007.82
2018-07-01T13:37:17.703Z,101014.32
2018-07-01T13:39:46.003Z,101009.64
2018-07-01T13:42:14.427Z,101004.71
2018-07-01T13:44:42.815Z,100998.44
2018-07-01T13:47:11.593Z,100998.77
2018-07-01T13:49:40.060Z,101005.09
2018-07-01T13:52:08.399Z,101003.23
2018-07-01T13:54:36.854Z,100997.23
2018-07-01T13:57:05.320Z,101005.50
2018-07-01T13:59:33.756Z,101001.15
2018-07-01T14:02:02.068Z,100987.95
2018-07-01T14:04:30.462Z,100988.54
2018-07-01T14:06:58.839Z,100987.47
2018-07-01T14:09:27.236Z,100992.10
2018-07-01T14:11:55.616Z,100986.34
2018-07-01T14:14:24.035Z,100980.34
2018-07-01T14:16:52.351Z,100978.16
2018-07-01T14:19:20.686Z,100987.17
2018-07-01T14:21:49.072Z,100979.79
2018-07-01T14:24:17.803Z,100991.55
2018-07-01T14:26:46.144Z,100980.61
2018-07-01T14:29:14.480Z,100982.00
2018-07-01T14:31:42.996Z,100977.88
2018-07-01T14:34:11.377Z,100975.41
2018-07-01T14:36:39.723Z,100971.50
2018-07-01T14:39:10.179Z,100971.77
2018-07-01T14:41:38.559Z,100968.97
2018-07-01T14:44:07.076Z,100976.83
2018-07-01T14:46:35.927Z,100965.84
2018-07-01T14:49:04.372Z,100967.17
2018-07-01T14:51:33.017Z,100957.73
2018-07-01T14:54:01.691Z,100959.88
2018-07-01T14:56:30.122Z,100965.77
2018-07-01T14:58:58.503Z,100960.48
2018-07-01T15:01:26.896Z,100956.03
2018-07-01T15:03:55.272Z,100959.84
2018-07-01T15:06:23.644Z,100953.19
2018-07-01T15:08:52.003Z,100952.82
2018-07-01T15:11:20.495Z,100957.08
2018-07-01T15:13:48.883Z,100951.28
2018-07-01T15:16:17.271Z,100948.42
2018-07-01T15:18:45.632Z,100944.41
2018-07-01T15:21:13.992Z,100942.48
2018-07-01T15:23:42.372Z,100931.00
2018-07-01T15:26:10.732Z,100932.61
2018-07-01T15:28:39.207Z,100934.19
2018-07-01T15:31:08.012Z,100930.31
2018-07-01T15:33:36.392Z,100933.30
2018-07-01T15:36:04.756Z,100930.03
2018-07-01T15:38:33.180Z,100927.30
2018-07-01T15:41:01.511Z,100920.23
2018-07-01T15:43:29.916Z,100924.86
2018-07-01T15:45:58.319Z,100926.41
2018-07-01T15:48:26.775Z,100927.73
2018-07-01T15:50:55.232Z,100916.64
2018-07-01T15:53:23.603Z,100924.93
2018-07-01T15:55:51.947Z,100927.73
2018-07-01T15:58:20.280Z,100925.89
2018-07-01T16:00:48.619Z,100926.59
2018-07-01T16:03:17.179Z,100920.43
2018-07-01T16:05:45.493Z,100919.86
2018-07-01T16:08:13.863Z,100909.53
2018-07-01T16:10:42.269Z,100919.92
2018-07-01T16:13:10.727Z,100921.55
2018-07-01T16:15:39.251Z,100923.31
2018-07-01T16:18:07.592Z,100919.80
2018-07-01T16:20:35.911Z,100923.86
2018-07-01T16:23:04.300Z,100925.73
2018-07-01T16:25:38.158Z,100919.59
2018-07-01T16:29:14.566Z,100924.94
2018-07-01T16:31:43.069Z,100918.06
2018-07-01T16:34:11.510Z,100923.05
2018-07-01T16:36:39.892Z,100918.63
2018-07-01T16:39:11.120Z,100916.29
2018-07-01T16:41:39.697Z,100919.84
2018-07-01T16:44:08.199Z,100916.67
2018-07-01T16:46:36.571Z,100918.02
2018-07-01T16:49:05.055Z,100911.70
2018-07-01T16:51:33.479Z,100910.83
2018-07-01T16:54:02.083Z,100915.09
2018-07-01T16:56:30.417Z,100918.81
2018-07-01T16:58:58.863Z,100912.66
2018-07-01T17:01:27.173Z,100918.42
2018-07-01T17:03:55.576Z,100927.34
2018-07-01T17:06:24.004Z,100918.02
2018-07-01T17:08:52.365Z,100916.44
2018-07-01T17:11:20.763Z,100916.89
2018-07-01T17:13:49.132Z,100924.10
2018-07-01T17:16:17.999Z,100923.17
2018-07-01T17:18:46.389Z,100916.00
2018-07-01T17:21:14.770Z,100919.97
2018-07-01T17:23:43.159Z,100918.13
2018-07-01T17:26:11.534Z,100912.23
2018-07-01T17:28:39.848Z,100924.69
2018-07-01T17:31:13.389Z,100921.16
2018-07-01T17:33:41.792Z,100925.50
2018-07-01T17:36:10.265Z,100923.77
2018-07-01T17:38:38.728Z,100920.34
2018-07-01T17:41:07.080Z,100922.13
2018-07-01T17:43:36.356Z,100920.30
2018-07-01T17:46:05.663Z,100914.43
2018-07-01T17:48:34.311Z,100912.20
2018-07-01T17:51:02.588Z,100912.16
2018-07-01T17:53:42.310Z,100916.44
2018-07-01T17:56:10.707Z,100916.48
2018-07-01T17:58:38.990Z,100915.68
2018-07-01T18:01:07.395Z,100917.72
2018-07-01T18:03:35.774Z,100910.92
2018-07-01T18:06:04.400Z,100918.37
2018-07-01T18:08:32.762Z,100915.25
2018-07-01T18:11:01.146Z,100923.66
2018-07-01T18:13:29.451Z,100925.93
2018-07-01T18:15:58.472Z,100925.70
2018-07-01T18:18:26.906Z,100924.07
2018-07-01T18:20:55.284Z,100920.83
2018-07-01T18:23:53.708Z,100918.06
2018-07-01T18:25:51.947Z,100922.69
2018-07-01T18:28:34.107Z,100916.48
2018-07-01T18:30:48.617Z,100919.53
2018-07-01T18:33:16.974Z,100926.91
2018-07-01T18:35:45.435Z,100921.33
2018-07-01T18:38:13.823Z,100922.22
2018-07-01T18:40:42.158Z,100913.76
2018-07-01T18:43:10.524Z,100913.60
2018-07-01T18:45:38.887Z,100919.14
2018-07-01T18:48:08.679Z,100912.13
2018-07-01T18:50:37.102Z,100914.35
2018-07-01T18:53:05.649Z,100918.26
2018-07-01T18:55:33.964Z,100919.41
2018-07-01T18:58:02.769Z,100921.13
2018-07-01T19:00:31.175Z,100923.56
2018-07-01T19:02:59.692Z,100926.14
2018-07-01T19:05:28.780Z,100919.75
2018-07-01T19:07:57.180Z,100926.35
2018-07-01T19:10:25.522Z,100933.81
2018-07-01T19:12:53.871Z,100931.78
2018-07-01T19:15:22.295Z,100935.73
2018-07-01T19:17:50.658Z,100933.64
2018-07-01T19:20:19.012Z,100934.88
2018-07-01T19:22:47.345Z,100937.89
2018-07-01T19:25:15.723Z,100937.93
2018-07-01T19:27:44.085Z,100940.52
2018-07-01T19:30:12.459Z,100947.06
2018-07-01T19:32:42.169Z,100946.34
2018-07-01T19:35:10.579Z,100950.46
2018-07-01T19:37:39.910Z,100950.26
2018-07-01T19:40:08.253Z,100948.66
2018-07-01T19:42:36.593Z,100952.81
2018-07-01T19:45:05.449Z,100954.53
2018-07-01T19:47:33.752Z,100959.97
2018-07-01T19:50:02.177Z,100960.58
2018-07-01T19:52:30.582Z,100959.58
2018-07-01T19:54:58.895Z,100964.33
2018-07-01T19:57:27.647Z,100959.05
2018-07-01T19:59:55.967Z,100963.25
2018-07-01T20:02:24.282Z,100967.22
2018-07-01T20:04:52.574Z,100970.00
2018-07-01T20:07:21.024Z,100977.42
2018-07-01T20:09:49.336Z,100980.48
2018-07-01T20:12:17.675Z,100970.06
2018-07-01T20:14:46.035Z,100989.31
2018-07-01T20:17:14.600Z,100977.97
2018-07-01T20:19:43.356Z,100980.44
2018-07-01T20:22:12.107Z,100989.20
2018-07-01T20:24:40.529Z,100994.45
2018-07-01T20:27:08.892Z,100999.24
2018-07-01T20:29:37.186Z,100995.52
2018-07-01T20:32:05.696Z,100993.46
2018-07-01T20:34:34.225Z,100993.52
2018-07-01T20:37:02.888Z,100993.84
2018-07-01T20:39:31.397Z,100994.20
2018-07-01T20:41:59.735Z,100999.95
2018-07-01T20:44:28.056Z,100999.75
2018-07-01T20:46:56.792Z,101006.20
2018-07-01T20:49:25.372Z,101004.98
2018-07-01T20:51:53.801Z,101004.97
2018-07-01T20:54:22.966Z,101005.30
2018-07-01T20:56:51.297Z,101011.01
2018-07-01T20:59:19.673Z,101009.28
2018-07-01T21:01:48.042Z,101015.63
2018-07-01T21:04:16.378Z,101018.75
2018-07-01T21:06:44.667Z,101015.11
2018-07-01T21:09:12.986Z,101015.98
2018-07-01T21:11:41.323Z,101015.88
2018-07-01T21:14:09.651Z,101018.38
2018-07-01T21:16:37.969Z,101016.30
2018-07-01T21:19:06.326Z,101018.09
2018-07-01T21:21:34.986Z,101019.45
2018-07-01T21:24:03.300Z,101019.03
2018-07-01T21:26:31.640Z,101025.91
2018-07-01T21:28:59.964Z,101028.30
2018-07-01T21:31:28.343Z,101028.72
2018-07-01T21:33:56.712Z,101030.16
2018-07-01T21:36:25.043Z,101040.66
2018-07-01T21:38:53.408Z,101041.03
2018-07-01T21:41:21.822Z,101043.10
2018-07-01T21:43:50.235Z,101042.83
2018-07-01T21:46:18.579Z,101039.19
2018-07-01T21:48:46.883Z,101040.11
2018-07-01T21:51:15.247Z,101048.41
2018-07-01T21:53:43.579Z,101045.81
2018-07-01T21:56:11.920Z,101049.98
2018-07-01T21:58:40.261Z,101050.28
2018-07-01T22:01:09.700Z,101046.02
2018-07-01T22:03:38.072Z,101040.52
2018-07-01T22:06:09.143Z,101045.41
2018-07-01T22:08:38.243Z,101048.50
2018-07-01T22:11:49.224Z,101052.64
2018-07-01T22:14:24.068Z,101050.47
2018-07-01T22:16:52.412Z,101054.09
2018-07-01T22:19:21.209Z,101052.51
2018-07-01T22:21:50.649Z,101055.41
2018-07-01T22:24:19.051Z,101052.83
2018-07-01T22:26:47.433Z,101053.86
2018-07-01T22:29:16.779Z,101054.23
2018-07-01T22:31:45.119Z,101060.74
2018-07-01T22:34:15.573Z,101051.42
2018-07-01T22:36:44.679Z,101050.16
2018-07-01T22:39:29.803Z,101047.66
2018-07-01T22:41:59.360Z,101046.71
2018-07-01T22:44:28.019Z,101050.95
2018-07-01T22:46:56.378Z,101047.54
2018-07-01T22:49:24.720Z,101055.19
2018-07-01T22:51:53.207Z,101050.52
2018-07-01T22:54:21.599Z,101056.62
2018-07-01T22:56:50.005Z,101056.70
2018-07-01T22:59:18.370Z,101059.39
2018-07-01T23:03:00.037Z,101060.11
2018-07-01T23:05:28.468Z,101059.58
2018-07-01T23:07:56.841Z,101057.67
2018-07-01T23:10:26.385Z,101058.39
2018-07-01T23:12:55.446Z,101061.39
2018-07-01T23:15:23.888Z,101057.62
2018-07-01T23:17:52.332Z,101058.52
2018-07-01T23:20:20.693Z,101058.62
2018-07-01T23:22:49.067Z,101059.50
2018-07-01T23:25:17.455Z,101058.94
2018-07-01T23:27:46.450Z,101058.20
2018-07-01T23:30:14.781Z,101048.34
2018-07-01T23:32:43.520Z,101046.87
2018-07-01T23:35:11.899Z,101035.78
2018-07-01T23:37:40.579Z,101035.33
2018-07-01T23:40:09.808Z,101035.66
2018-07-01T23:42:38.285Z,101031.30
2018-07-01T23:45:08.331Z,101032.33
2018-07-01T23:47:36.711Z,101037.70
2018-07-01T23:50:05.874Z,101025.47
2018-07-01T23:52:34.278Z,101021.34
2018-07-01T23:55:02.660Z,101023.07
2018-07-01T23:57:31.059Z,101023.39
2018-07-01T23:59:59.497Z,101024.94
